Terminal Aerodrome Forecast
Issued by NWS

Home | Current Version | Previous Version | Text Only | Print | Product List | Glossary On
Versions: 1 2 3 4 5 6 7 8 9 10 11 12 13 14 15 16
000
FTUS46 KPQR 162342
TAFONP
TAF
KONP 162342Z 1700/1724 20011KT P6SM SCT035 BKN050 OVC070
     FM170400 19012KT 5SM -RA SCT015 BKN025 OVC045
     FM171000 19012G22KT 4SM RADZ BR BKN015 OVC025
     FM172200 23012KT 5SM -RADZ BR BKN015 OVC030=

USA.gov is the U.S. government's official web portal to all federal, state and local government web resources and services.